createdAt,value
2022-11-12T00:01:05.936Z,2.5
2022-11-12T00:06:05.916Z,2.31
2022-11-12T00:11:05.943Z,2.18
2022-11-12T00:16:05.937Z,2.37
2022-11-12T00:21:05.934Z,2.12
2022-11-12T00:26:05.918Z,2.5
2022-11-12T00:31:05.918Z,2.18
2022-11-12T00:36:05.910Z,2.43
2022-11-12T00:41:05.916Z,2.75
2022-11-12T00:46:05.937Z,2.56
2022-11-12T00:51:05.922Z,2.18
2022-11-12T00:56:05.902Z,2.06
2022-11-12T01:01:05.914Z,2.18
2022-11-12T01:06:05.906Z,2.25
2022-11-12T01:11:05.901Z,2.37
2022-11-12T01:16:05.907Z,2.31
2022-11-12T01:21:05.879Z,2.56
2022-11-12T01:26:05.914Z,2.68
2022-11-12T01:31:05.908Z,2.87
2022-11-12T01:36:05.882Z,3.56
2022-11-12T01:41:05.899Z,3.12
2022-11-12T01:46:05.879Z,3
2022-11-12T01:51:05.876Z,2.43
2022-11-12T01:56:05.876Z,2.87
2022-11-12T02:01:05.915Z,2.68
2022-11-12T02:06:05.886Z,2.43
2022-11-12T02:11:05.869Z,2.87
2022-11-12T02:16:05.868Z,2.5
2022-11-12T02:21:05.858Z,2.62
2022-11-12T02:26:05.857Z,2.5
2022-11-12T02:31:05.864Z,2.56
2022-11-12T02:36:05.881Z,2.5
2022-11-12T02:41:05.851Z,2.31
2022-11-12T02:46:05.845Z,2.12
2022-11-12T02:51:05.842Z,2.56
2022-11-12T02:56:05.837Z,2.37
2022-11-12T03:01:05.898Z,2.25
2022-11-12T03:06:05.834Z,2.12
2022-11-12T03:11:05.836Z,2.25
2022-11-12T03:16:05.847Z,2.37
2022-11-12T03:21:05.834Z,2.06
2022-11-12T03:26:05.848Z,2.31
2022-11-12T03:31:05.820Z,2.37
2022-11-12T03:36:05.826Z,2.37
2022-11-12T03:41:05.834Z,2.12
2022-11-12T03:46:05.817Z,2.5
2022-11-12T03:51:05.827Z,2.12
2022-11-12T03:56:05.809Z,2.25
2022-11-12T04:01:05.836Z,2.5
2022-11-12T04:06:05.820Z,2.56
2022-11-12T04:11:05.801Z,2.37
2022-11-12T04:16:05.822Z,2.31
2022-11-12T04:21:05.819Z,2.25
2022-11-12T04:26:05.801Z,2.68
2022-11-12T04:31:05.801Z,2.12
2022-11-12T04:36:05.801Z,2.75
2022-11-12T04:41:05.785Z,2.5
2022-11-12T04:46:05.779Z,2.37
2022-11-12T04:51:05.782Z,2.43
2022-11-12T04:56:05.787Z,2.18
2022-11-12T05:01:05.810Z,2
2022-11-12T05:06:05.778Z,1.87
2022-11-12T05:11:10.096Z,1.75
2022-11-12T05:16:05.773Z,2
2022-11-12T05:21:05.769Z,2.12
2022-11-12T05:26:05.774Z,2.12
2022-11-12T05:31:05.756Z,2.25
2022-11-12T05:36:05.760Z,2.06
2022-11-12T05:41:05.773Z,2.25
2022-11-12T05:46:05.754Z,2.5
2022-11-12T05:51:12.770Z,2.56
2022-11-12T05:56:05.766Z,2.62
2022-11-12T06:01:05.763Z,2.68
2022-11-12T06:06:05.758Z,2.5
2022-11-12T06:11:05.750Z,2.75
2022-11-12T06:16:05.754Z,2.31
2022-11-12T06:21:05.745Z,2.75
2022-11-12T06:26:05.746Z,2.81
2022-11-12T06:31:05.772Z,2.68
2022-11-12T06:36:05.745Z,2.62
2022-11-12T06:41:05.737Z,2.56
2022-11-12T06:46:05.734Z,2.62
2022-11-12T06:51:05.735Z,2.56
2022-11-12T06:56:05.735Z,3
2022-11-12T07:01:10.048Z,3.18
2022-11-12T07:06:05.731Z,3.18
2022-11-12T07:11:05.731Z,3.31
2022-11-12T07:16:05.734Z,3.06
2022-11-12T07:21:05.733Z,2.81
2022-11-12T07:26:05.723Z,3.25
2022-11-12T07:31:05.741Z,3.56
2022-11-12T07:36:05.712Z,3.43
2022-11-12T07:41:05.701Z,3.87
2022-11-12T07:46:10.206Z,4.43
2022-11-12T07:51:05.693Z,4.93
2022-11-12T07:56:05.705Z,4.93
2022-11-12T08:01:05.719Z,4.68
2022-11-12T08:06:05.686Z,5.06
2022-11-12T08:11:05.687Z,5.31
2022-11-12T08:16:05.688Z,5.5
2022-11-12T08:21:05.690Z,5.5
2022-11-12T08:26:05.678Z,5.87
2022-11-12T08:31:05.700Z,6.25
2022-11-12T08:36:05.674Z,6.25
2022-11-12T08:41:05.724Z,6.62
2022-11-12T08:46:05.661Z,6.56
2022-11-12T08:51:05.693Z,6.81
2022-11-12T08:56:05.663Z,6.81
2022-11-12T09:01:05.660Z,7
2022-11-12T09:06:05.644Z,6.81
2022-11-12T09:11:05.631Z,6.75
2022-11-12T09:16:05.639Z,6.56
2022-11-12T09:21:05.620Z,6.75
2022-11-12T09:26:05.638Z,6.81
2022-11-12T09:31:05.670Z,7.25
2022-11-12T09:36:05.625Z,7.12
2022-11-12T09:41:05.614Z,7.25
2022-11-12T09:46:26.491Z,7.25
2022-11-12T09:51:05.613Z,7.43
2022-11-12T09:56:05.591Z,7.5
2022-11-12T10:01:05.600Z,7.56
2022-11-12T10:06:10.179Z,7.68
2022-11-12T10:11:05.583Z,8.43
2022-11-12T10:16:05.585Z,8.37
2022-11-12T10:21:05.569Z,7.68
2022-11-12T10:26:05.589Z,8.25
2022-11-12T10:31:05.563Z,8.18
2022-11-12T10:36:05.577Z,8.43
2022-11-12T10:46:05.555Z,8.68
2022-11-12T11:11:05.567Z,9.06
2022-11-12T11:21:05.516Z,9.31
2022-11-12T11:26:05.500Z,9.43
2022-11-12T11:36:05.516Z,9.25
2022-11-12T11:41:05.498Z,9.25
2022-11-12T11:46:05.497Z,9.56
2022-11-12T11:51:05.500Z,10
2022-11-12T11:56:05.470Z,10
2022-11-12T12:01:05.495Z,10.06
2022-11-12T12:06:05.483Z,9.56
2022-11-12T12:11:08.484Z,9.68
2022-11-12T12:16:05.592Z,9.68
2022-11-12T12:21:05.459Z,9.75
2022-11-12T12:26:05.450Z,10.06
2022-11-12T12:31:05.442Z,9.87
2022-11-12T12:36:05.451Z,10.75
2022-11-12T12:41:05.441Z,10.37
2022-11-12T12:46:05.441Z,10
2022-11-12T12:51:05.427Z,10.31
2022-11-12T12:56:05.416Z,10.06
2022-11-12T13:01:05.460Z,10.06
2022-11-12T13:06:05.399Z,10.06
2022-11-12T13:11:05.417Z,10.31
2022-11-12T13:16:05.400Z,10.25
2022-11-12T13:21:05.398Z,9.87
2022-11-12T13:26:05.393Z,9.93
2022-11-12T13:31:05.394Z,9.87
2022-11-12T13:36:05.364Z,9.56
2022-11-12T13:41:05.389Z,9.5
2022-11-12T13:46:05.363Z,9.5
2022-11-12T13:51:05.366Z,9.31
2022-11-12T13:56:05.347Z,9.37
2022-11-12T14:01:05.424Z,9.18
2022-11-12T14:06:05.344Z,9
2022-11-12T14:11:05.344Z,9
2022-11-12T14:16:05.342Z,8.93
2022-11-12T14:21:05.331Z,8.93
2022-11-12T14:26:05.344Z,8.81
2022-11-12T14:31:05.352Z,8.62
2022-11-12T14:36:05.325Z,8.68
2022-11-12T14:41:05.322Z,8.68
2022-11-12T14:46:05.313Z,8.62
2022-11-12T14:51:05.301Z,8.37
2022-11-12T14:56:05.395Z,8.31
2022-11-12T15:01:05.342Z,8.18
2022-11-12T15:06:05.299Z,7.87
2022-11-12T15:11:05.292Z,7.68
2022-11-12T15:16:05.305Z,7.31
2022-11-12T15:21:05.271Z,7.06
2022-11-12T15:26:05.277Z,6.68
2022-11-12T15:31:05.270Z,6.56
2022-11-12T15:36:05.271Z,6.37
2022-11-12T15:41:05.267Z,6.25
2022-11-12T15:46:05.273Z,5.87
2022-11-12T15:51:05.247Z,5.68
2022-11-12T15:56:05.255Z,5.5
2022-11-12T16:01:05.284Z,5.37
2022-11-12T16:06:08.835Z,5.25
2022-11-12T16:11:05.232Z,5.12
2022-11-12T16:16:05.240Z,5
2022-11-12T16:21:05.215Z,4.87
2022-11-12T16:26:05.244Z,4.68
2022-11-12T16:31:05.233Z,4.43
2022-11-12T16:36:05.215Z,4.75
2022-11-12T16:41:05.222Z,4.43
2022-11-12T16:46:05.200Z,4.31
2022-11-12T16:51:05.210Z,4.31
2022-11-12T16:56:05.208Z,4.12
2022-11-12T17:01:05.208Z,4.31
2022-11-12T17:06:05.210Z,4.31
2022-11-12T17:11:05.186Z,4.12
2022-11-12T17:16:05.188Z,4
2022-11-12T17:21:05.196Z,3.75
2022-11-12T17:26:05.185Z,3.18
2022-11-12T17:31:05.197Z,2.93
2022-11-12T17:36:05.170Z,3.06
2022-11-12T17:41:05.168Z,3.12
2022-11-12T17:46:05.184Z,3.12
2022-11-12T17:51:05.175Z,3.37
2022-11-12T17:56:05.177Z,3.31
2022-11-12T18:01:05.252Z,2.56
2022-11-12T18:06:05.176Z,2.75
2022-11-12T18:11:05.152Z,2.75
2022-11-12T18:16:05.151Z,2.56
2022-11-12T18:21:05.152Z,2.37
2022-11-12T18:26:05.149Z,2.5
2022-11-12T18:31:05.141Z,2.31
2022-11-12T18:36:05.152Z,2.31
2022-11-12T18:41:05.158Z,2.06
2022-11-12T18:51:05.139Z,2.25
2022-11-12T18:56:05.137Z,2.5
2022-11-12T19:01:05.153Z,2.18
2022-11-12T19:06:05.136Z,2.25
2022-11-12T19:11:05.203Z,1.75
2022-11-12T19:16:05.125Z,2.06
2022-11-12T19:21:05.124Z,2
2022-11-12T19:26:05.139Z,2.43
2022-11-12T19:31:05.128Z,2
2022-11-12T19:41:05.125Z,1.81
2022-11-12T19:46:05.110Z,1.62
2022-11-12T19:51:05.113Z,1.37
2022-11-12T19:56:05.102Z,1.18
2022-11-12T20:01:06.136Z,1.18
2022-11-12T20:06:05.122Z,2
2022-11-12T20:11:05.148Z,1.75
2022-11-12T20:16:05.096Z,1.68
2022-11-12T20:21:05.105Z,1.12
2022-11-12T20:26:05.092Z,0.93
2022-11-12T20:31:05.088Z,0.87
2022-11-12T20:36:05.076Z,0.87
2022-11-12T20:41:05.099Z,0.93
2022-11-12T20:46:05.072Z,1.25
2022-11-12T20:51:22.509Z,1.31
2022-11-12T20:56:05.075Z,1.25
2022-11-12T21:01:05.108Z,1.06
2022-11-12T21:06:05.088Z,0.56
2022-11-12T21:11:05.070Z,0.68
2022-11-12T21:16:05.065Z,1.06
2022-11-12T21:21:05.075Z,1.18
2022-11-12T21:26:05.060Z,1.62
2022-11-12T21:31:05.061Z,1.62
2022-11-12T21:36:05.067Z,1.62
2022-11-12T21:41:05.070Z,1.81
2022-11-12T21:46:05.082Z,1.68
2022-11-12T21:51:05.069Z,1.62
2022-11-12T21:56:05.059Z,1.25
2022-11-12T22:01:05.072Z,1.5
2022-11-12T22:06:05.047Z,1.5
2022-11-12T22:11:05.056Z,1.43
2022-11-12T22:16:05.043Z,1.37
2022-11-12T22:21:05.044Z,1.43
2022-11-12T22:26:05.041Z,1.56
2022-11-12T22:31:05.045Z,1.75
2022-11-12T22:36:05.037Z,1.93
2022-11-12T22:41:05.043Z,2.37
2022-11-12T22:46:05.041Z,2.18
2022-11-12T22:51:05.099Z,2.12
2022-11-12T22:56:05.024Z,2.06
2022-11-12T23:16:05.060Z,2.62
2022-11-12T23:21:05.029Z,2
2022-11-12T23:26:05.037Z,2.31
2022-11-12T23:31:05.023Z,2.25
2022-11-12T23:36:05.028Z,2.25
2022-11-12T23:41:05.018Z,2.25
2022-11-12T23:46:05.012Z,2.12
2022-11-12T23:51:05.012Z,2.37
2022-11-12T23:56:05.003Z,2.43
